sensor_id;sensor_type;location;lat;lon;timestamp;P1;durP1;ratioP1;P2;durP2;ratioP2
53598;SDS011;39485;45.702;11.364;2022-07-29T00:01:48;5.70;;;2.65;;
53598;SDS011;39485;45.702;11.364;2022-07-29T00:04:13;2.53;;;1.98;;
53598;SDS011;39485;45.702;11.364;2022-07-29T00:06:39;4.95;;;2.55;;
53598;SDS011;39485;45.702;11.364;2022-07-29T00:09:05;5.70;;;2.25;;
53598;SDS011;39485;45.702;11.364;2022-07-29T00:11:31;4.60;;;1.80;;
53598;SDS011;39485;45.702;11.364;2022-07-29T00:13:57;4.75;;;1.58;;
53598;SDS011;39485;45.702;11.364;2022-07-29T00:16:23;2.60;;;1.75;;
53598;SDS011;39485;45.702;11.364;2022-07-29T00:18:48;5.97;;;1.85;;
53598;SDS011;39485;45.702;11.364;2022-07-29T00:21:14;2.78;;;1.83;;
53598;SDS011;39485;45.702;11.364;2022-07-29T00:23:40;5.72;;;2.45;;
53598;SDS011;39485;45.702;11.364;2022-07-29T00:26:05;3.10;;;2.08;;
53598;SDS011;39485;45.702;11.364;2022-07-29T00:28:31;3.83;;;2.15;;
53598;SDS011;39485;45.702;11.364;2022-07-29T00:30:57;4.15;;;1.88;;
53598;SDS011;39485;45.702;11.364;2022-07-29T00:33:22;2.72;;;1.65;;
53598;SDS011;39485;45.702;11.364;2022-07-29T00:35:48;2.67;;;1.55;;
53598;SDS011;39485;45.702;11.364;2022-07-29T00:38:15;5.35;;;1.92;;
53598;SDS011;39485;45.702;11.364;2022-07-29T00:40:43;3.97;;;1.52;;
53598;SDS011;39485;45.702;11.364;2022-07-29T00:43:10;5.15;;;1.40;;
53598;SDS011;39485;45.702;11.364;2022-07-29T00:45:38;1.38;;;1.27;;
53598;SDS011;39485;45.702;11.364;2022-07-29T00:48:03;1.75;;;1.30;;
53598;SDS011;39485;45.702;11.364;2022-07-29T00:50:30;1.27;;;1.25;;
53598;SDS011;39485;45.702;11.364;2022-07-29T00:52:57;2.03;;;1.30;;
53598;SDS011;39485;45.702;11.364;2022-07-29T00:55:23;1.30;;;1.20;;
53598;SDS011;39485;45.702;11.364;2022-07-29T00:57:49;1.40;;;1.30;;
53598;SDS011;39485;45.702;11.364;2022-07-29T01:00:16;5.70;;;1.48;;
53598;SDS011;39485;45.702;11.364;2022-07-29T01:02:46;1.20;;;1.10;;
53598;SDS011;39485;45.702;11.364;2022-07-29T01:05:20;1.88;;;1.17;;
53598;SDS011;39485;45.702;11.364;2022-07-29T01:07:48;1.45;;;1.15;;
53598;SDS011;39485;45.702;11.364;2022-07-29T01:10:16;4.50;;;1.25;;
53598;SDS011;39485;45.702;11.364;2022-07-29T01:12:45;4.15;;;1.05;;
53598;SDS011;39485;45.702;11.364;2022-07-29T01:15:12;1.83;;;1.30;;
53598;SDS011;39485;45.702;11.364;2022-07-29T01:17:46;1.48;;;1.15;;
53598;SDS011;39485;45.702;11.364;2022-07-29T01:20:27;2.03;;;1.10;;
53598;SDS011;39485;45.702;11.364;2022-07-29T01:23:11;1.48;;;1.23;;
53598;SDS011;39485;45.702;11.364;2022-07-29T01:30:57;2.65;;;1.25;;
53598;SDS011;39485;45.702;11.364;2022-07-29T01:33:25;3.38;;;1.23;;
53598;SDS011;39485;45.702;11.364;2022-07-29T01:36:13;1.73;;;1.40;;
53598;SDS011;39485;45.702;11.364;2022-07-29T01:38:42;1.83;;;1.50;;
53598;SDS011;39485;45.702;11.364;2022-07-29T01:41:15;1.30;;;1.20;;
53598;SDS011;39485;45.702;11.364;2022-07-29T01:43:49;2.60;;;1.23;;
53598;SDS011;39485;45.702;11.364;2022-07-29T01:46:33;1.20;;;1.10;;
53598;SDS011;39485;45.702;11.364;2022-07-29T01:49:06;2.50;;;1.58;;
53598;SDS011;39485;45.702;11.364;2022-07-29T01:51:41;2.28;;;1.60;;
53598;SDS011;39485;45.702;11.364;2022-07-29T01:54:21;1.63;;;1.10;;
53598;SDS011;39485;45.702;11.364;2022-07-29T01:57:00;3.20;;;1.15;;
53598;SDS011;39485;45.702;11.364;2022-07-29T01:59:28;1.77;;;1.13;;
53598;SDS011;39485;45.702;11.364;2022-07-29T02:01:56;1.20;;;1.20;;
53598;SDS011;39485;45.702;11.364;2022-07-29T02:04:24;5.00;;;0.70;;
53598;SDS011;39485;45.702;11.364;2022-07-29T02:06:52;2.15;;;1.17;;
53598;SDS011;39485;45.702;11.364;2022-07-29T02:09:21;2.63;;;1.45;;
53598;SDS011;39485;45.702;11.364;2022-07-29T02:11:49;1.30;;;1.20;;
53598;SDS011;39485;45.702;11.364;2022-07-29T02:14:19;4.55;;;1.33;;
53598;SDS011;39485;45.702;11.364;2022-07-29T02:16:47;2.22;;;1.45;;
53598;SDS011;39485;45.702;11.364;2022-07-29T02:19:15;1.48;;;1.30;;
53598;SDS011;39485;45.702;11.364;2022-07-29T02:21:43;2.03;;;1.05;;
53598;SDS011;39485;45.702;11.364;2022-07-29T02:24:10;1.15;;;1.05;;
53598;SDS011;39485;45.702;11.364;2022-07-29T02:26:37;0.95;;;0.95;;
53598;SDS011;39485;45.702;11.364;2022-07-29T02:29:06;3.60;;;1.00;;
53598;SDS011;39485;45.702;11.364;2022-07-29T02:31:34;0.90;;;0.90;;
53598;SDS011;39485;45.702;11.364;2022-07-29T02:34:02;5.25;;;1.02;;
53598;SDS011;39485;45.702;11.364;2022-07-29T02:36:30;0.80;;;0.80;;
53598;SDS011;39485;45.702;11.364;2022-07-29T02:38:57;0.90;;;0.90;;
53598;SDS011;39485;45.702;11.364;2022-07-29T02:44:00;0.80;;;0.80;;
53598;SDS011;39485;45.702;11.364;2022-07-29T02:46:30;3.00;;;1.02;;
53598;SDS011;39485;45.702;11.364;2022-07-29T02:52:08;0.95;;;0.90;;
53598;SDS011;39485;45.702;11.364;2022-07-29T02:54:50;1.08;;;1.08;;
53598;SDS011;39485;45.702;11.364;2022-07-29T02:57:28;2.92;;;0.90;;
53598;SDS011;39485;45.702;11.364;2022-07-29T02:59:59;1.27;;;1.17;;
53598;SDS011;39485;45.702;11.364;2022-07-29T03:02:30;0.98;;;0.80;;
53598;SDS011;39485;45.702;11.364;2022-07-29T03:05:00;1.58;;;0.85;;
53598;SDS011;39485;45.702;11.364;2022-07-29T03:07:28;1.33;;;1.05;;
53598;SDS011;39485;45.702;11.364;2022-07-29T03:09:54;1.88;;;0.93;;
53598;SDS011;39485;45.702;11.364;2022-07-29T03:12:22;2.20;;;1.08;;
53598;SDS011;39485;45.702;11.364;2022-07-29T03:14:48;1.50;;;1.20;;
53598;SDS011;39485;45.702;11.364;2022-07-29T03:17:14;1.13;;;1.02;;
53598;SDS011;39485;45.702;11.364;2022-07-29T03:19:47;4.25;;;0.95;;
53598;SDS011;39485;45.702;11.364;2022-07-29T03:22:13;2.75;;;1.17;;
53598;SDS011;39485;45.702;11.364;2022-07-29T03:24:39;1.30;;;0.90;;
53598;SDS011;39485;45.702;11.364;2022-07-29T03:27:05;9.27;;;1.48;;
53598;SDS011;39485;45.702;11.364;2022-07-29T03:29:31;4.18;;;1.17;;
53598;SDS011;39485;45.702;11.364;2022-07-29T03:31:57;1.95;;;1.20;;
53598;SDS011;39485;45.702;11.364;2022-07-29T03:34:22;1.10;;;1.00;;
53598;SDS011;39485;45.702;11.364;2022-07-29T03:36:48;1.33;;;1.17;;
53598;SDS011;39485;45.702;11.364;2022-07-29T03:39:15;1.02;;;1.00;;
53598;SDS011;39485;45.702;11.364;2022-07-29T03:41:44;1.00;;;1.00;;
53598;SDS011;39485;45.702;11.364;2022-07-29T03:44:12;0.85;;;0.85;;
53598;SDS011;39485;45.702;11.364;2022-07-29T03:46:40;1.92;;;1.10;;
53598;SDS011;39485;45.702;11.364;2022-07-29T03:49:08;1.33;;;1.10;;
53598;SDS011;39485;45.702;11.364;2022-07-29T03:51:35;1.10;;;1.10;;
53598;SDS011;39485;45.702;11.364;2022-07-29T03:54:01;1.35;;;1.20;;
53598;SDS011;39485;45.702;11.364;2022-07-29T03:56:28;1.85;;;1.42;;
53598;SDS011;39485;45.702;11.364;2022-07-29T03:58:54;1.23;;;1.13;;
53598;SDS011;39485;45.702;11.364;2022-07-29T04:01:21;2.60;;;1.30;;
53598;SDS011;39485;45.702;11.364;2022-07-29T04:03:48;1.38;;;1.27;;
53598;SDS011;39485;45.702;11.364;2022-07-29T04:06:14;3.05;;;1.45;;
53598;SDS011;39485;45.702;11.364;2022-07-29T04:08:40;4.03;;;1.35;;
53598;SDS011;39485;45.702;11.364;2022-07-29T04:11:05;1.23;;;1.13;;
53598;SDS011;39485;45.702;11.364;2022-07-29T04:13:32;2.97;;;1.83;;
53598;SDS011;39485;45.702;11.364;2022-07-29T04:15:58;1.42;;;1.30;;
53598;SDS011;39485;45.702;11.364;2022-07-29T04:18:24;1.67;;;1.50;;
53598;SDS011;39485;45.702;11.364;2022-07-29T04:20:50;1.83;;;1.30;;
53598;SDS011;39485;45.702;11.364;2022-07-29T04:23:15;1.50;;;1.40;;
53598;SDS011;39485;45.702;11.364;2022-07-29T04:25:41;1.80;;;1.70;;
53598;SDS011;39485;45.702;11.364;2022-07-29T04:28:08;1.77;;;1.65;;
53598;SDS011;39485;45.702;11.364;2022-07-29T04:30:35;2.28;;;1.35;;
53598;SDS011;39485;45.702;11.364;2022-07-29T04:33:03;2.53;;;1.90;;
53598;SDS011;39485;45.702;11.364;2022-07-29T04:35:30;3.15;;;1.50;;
53598;SDS011;39485;45.702;11.364;2022-07-29T04:37:58;1.48;;;1.35;;
53598;SDS011;39485;45.702;11.364;2022-07-29T04:40:24;1.67;;;1.45;;
53598;SDS011;39485;45.702;11.364;2022-07-29T04:42:49;1.60;;;1.50;;
53598;SDS011;39485;45.702;11.364;2022-07-29T04:45:15;1.98;;;1.55;;
53598;SDS011;39485;45.702;11.364;2022-07-29T04:47:41;2.17;;;1.58;;
53598;SDS011;39485;45.702;11.364;2022-07-29T04:50:07;2.67;;;1.60;;
53598;SDS011;39485;45.702;11.364;2022-07-29T04:52:34;1.70;;;1.60;;
53598;SDS011;39485;45.702;11.364;2022-07-29T04:55:00;1.55;;;1.45;;
53598;SDS011;39485;45.702;11.364;2022-07-29T04:57:28;1.73;;;1.63;;
53598;SDS011;39485;45.702;11.364;2022-07-29T04:59:53;1.75;;;1.58;;
53598;SDS011;39485;45.702;11.364;2022-07-29T05:02:19;1.77;;;1.38;;
53598;SDS011;39485;45.702;11.364;2022-07-29T05:04:45;3.75;;;1.75;;
53598;SDS011;39485;45.702;11.364;2022-07-29T05:07:10;3.85;;;1.70;;
53598;SDS011;39485;45.702;11.364;2022-07-29T05:09:36;7.07;;;1.60;;
53598;SDS011;39485;45.702;11.364;2022-07-29T05:12:02;5.97;;;1.73;;
53598;SDS011;39485;45.702;11.364;2022-07-29T05:14:27;3.05;;;1.30;;
53598;SDS011;39485;45.702;11.364;2022-07-29T05:16:53;2.53;;;1.80;;
53598;SDS011;39485;45.702;11.364;2022-07-29T05:19:21;4.10;;;1.67;;
53598;SDS011;39485;45.702;11.364;2022-07-29T05:21:47;3.67;;;1.65;;
53598;SDS011;39485;45.702;11.364;2022-07-29T05:24:13;2.15;;;1.75;;
53598;SDS011;39485;45.702;11.364;2022-07-29T05:26:39;4.15;;;1.65;;
53598;SDS011;39485;45.702;11.364;2022-07-29T05:29:05;2.85;;;1.80;;
53598;SDS011;39485;45.702;11.364;2022-07-29T05:31:31;2.65;;;1.70;;
53598;SDS011;39485;45.702;11.364;2022-07-29T05:33:56;2.28;;;1.70;;
53598;SDS011;39485;45.702;11.364;2022-07-29T05:36:22;4.38;;;2.08;;
53598;SDS011;39485;45.702;11.364;2022-07-29T05:38:48;1.40;;;1.30;;
53598;SDS011;39485;45.702;11.364;2022-07-29T05:41:13;3.53;;;1.58;;
53598;SDS011;39485;45.702;11.364;2022-07-29T05:43:39;1.65;;;1.55;;
53598;SDS011;39485;45.702;11.364;2022-07-29T05:46:05;2.83;;;1.60;;
53598;SDS011;39485;45.702;11.364;2022-07-29T05:48:30;4.78;;;1.88;;
53598;SDS011;39485;45.702;11.364;2022-07-29T05:50:57;4.18;;;1.70;;
53598;SDS011;39485;45.702;11.364;2022-07-29T05:53:22;3.05;;;1.95;;
53598;SDS011;39485;45.702;11.364;2022-07-29T05:55:48;2.65;;;1.65;;
53598;SDS011;39485;45.702;11.364;2022-07-29T05:58:16;4.78;;;2.10;;
53598;SDS011;39485;45.702;11.364;2022-07-29T06:00:42;3.22;;;1.80;;
53598;SDS011;39485;45.702;11.364;2022-07-29T06:03:08;3.20;;;1.92;;
53598;SDS011;39485;45.702;11.364;2022-07-29T06:05:34;1.80;;;1.70;;
53598;SDS011;39485;45.702;11.364;2022-07-29T06:08:00;3.70;;;2.05;;
53598;SDS011;39485;45.702;11.364;2022-07-29T06:10:25;2.33;;;2.05;;
53598;SDS011;39485;45.702;11.364;2022-07-29T06:12:51;4.78;;;1.50;;
53598;SDS011;39485;45.702;11.364;2022-07-29T06:15:17;3.25;;;2.20;;
53598;SDS011;39485;45.702;11.364;2022-07-29T06:17:43;2.90;;;1.40;;
53598;SDS011;39485;45.702;11.364;2022-07-29T06:20:09;4.65;;;1.70;;
53598;SDS011;39485;45.702;11.364;2022-07-29T06:22:35;2.70;;;2.08;;
53598;SDS011;39485;45.702;11.364;2022-07-29T06:25:01;2.42;;;1.80;;
53598;SDS011;39485;45.702;11.364;2022-07-29T06:27:27;1.83;;;1.38;;
53598;SDS011;39485;45.702;11.364;2022-07-29T06:29:53;8.73;;;1.90;;
53598;SDS011;39485;45.702;11.364;2022-07-29T06:32:19;3.85;;;1.88;;
53598;SDS011;39485;45.702;11.364;2022-07-29T06:34:44;2.30;;;1.38;;
53598;SDS011;39485;45.702;11.364;2022-07-29T06:37:10;4.82;;;1.67;;
53598;SDS011;39485;45.702;11.364;2022-07-29T06:39:35;2.30;;;1.48;;
53598;SDS011;39485;45.702;11.364;2022-07-29T06:42:02;2.90;;;1.70;;
53598;SDS011;39485;45.702;11.364;2022-07-29T06:44:31;4.20;;;1.33;;
53598;SDS011;39485;45.702;11.364;2022-07-29T06:46:58;3.08;;;1.63;;
53598;SDS011;39485;45.702;11.364;2022-07-29T06:49:25;3.95;;;1.63;;
53598;SDS011;39485;45.702;11.364;2022-07-29T06:51:51;1.45;;;1.33;;
53598;SDS011;39485;45.702;11.364;2022-07-29T06:54:17;1.92;;;1.38;;
53598;SDS011;39485;45.702;11.364;2022-07-29T06:56:43;4.22;;;1.80;;
53598;SDS011;39485;45.702;11.364;2022-07-29T06:59:09;3.60;;;1.48;;
53598;SDS011;39485;45.702;11.364;2022-07-29T07:01:36;4.22;;;1.73;;
53598;SDS011;39485;45.702;11.364;2022-07-29T07:04:06;2.83;;;1.90;;
53598;SDS011;39485;45.702;11.364;2022-07-29T07:06:33;4.95;;;1.83;;
53598;SDS011;39485;45.702;11.364;2022-07-29T07:08:59;5.07;;;1.77;;
53598;SDS011;39485;45.702;11.364;2022-07-29T07:11:25;3.38;;;1.70;;
53598;SDS011;39485;45.702;11.364;2022-07-29T07:13:51;3.65;;;2.08;;
53598;SDS011;39485;45.702;11.364;2022-07-29T07:16:17;2.17;;;1.95;;
53598;SDS011;39485;45.702;11.364;2022-07-29T07:18:42;2.25;;;1.83;;
53598;SDS011;39485;45.702;11.364;2022-07-29T07:21:10;4.68;;;2.20;;
53598;SDS011;39485;45.702;11.364;2022-07-29T07:23:36;3.13;;;1.98;;
53598;SDS011;39485;45.702;11.364;2022-07-29T07:26:02;2.67;;;1.90;;
53598;SDS011;39485;45.702;11.364;2022-07-29T07:28:28;6.65;;;2.10;;
53598;SDS011;39485;45.702;11.364;2022-07-29T07:30:54;2.72;;;2.10;;
53598;SDS011;39485;45.702;11.364;2022-07-29T07:33:19;3.05;;;2.22;;
53598;SDS011;39485;45.702;11.364;2022-07-29T07:35:45;1.98;;;1.60;;
53598;SDS011;39485;45.702;11.364;2022-07-29T07:38:11;2.78;;;1.80;;
53598;SDS011;39485;45.702;11.364;2022-07-29T07:40:37;4.38;;;1.80;;
53598;SDS011;39485;45.702;11.364;2022-07-29T07:43:02;3.22;;;1.98;;
53598;SDS011;39485;45.702;11.364;2022-07-29T07:45:28;2.08;;;1.88;;
53598;SDS011;39485;45.702;11.364;2022-07-29T07:47:54;7.03;;;2.30;;
53598;SDS011;39485;45.702;11.364;2022-07-29T07:50:20;2.33;;;1.73;;
53598;SDS011;39485;45.702;11.364;2022-07-29T07:52:52;5.90;;;2.35;;
53598;SDS011;39485;45.702;11.364;2022-07-29T07:55:22;2.00;;;1.70;;
53598;SDS011;39485;45.702;11.364;2022-07-29T07:57:49;2.67;;;1.83;;
53598;SDS011;39485;45.702;11.364;2022-07-29T08:00:15;1.60;;;1.50;;
53598;SDS011;39485;45.702;11.364;2022-07-29T08:02:41;3.00;;;1.92;;
53598;SDS011;39485;45.702;11.364;2022-07-29T08:05:08;1.75;;;1.65;;
53598;SDS011;39485;45.702;11.364;2022-07-29T08:07:34;1.83;;;1.50;;
53598;SDS011;39485;45.702;11.364;2022-07-29T08:09:59;1.60;;;1.50;;
53598;SDS011;39485;45.702;11.364;2022-07-29T08:12:25;3.45;;;1.50;;
53598;SDS011;39485;45.702;11.364;2022-07-29T08:14:51;2.70;;;1.80;;
53598;SDS011;39485;45.702;11.364;2022-07-29T08:17:16;1.60;;;1.40;;
53598;SDS011;39485;45.702;11.364;2022-07-29T08:19:42;2.70;;;1.45;;
53598;SDS011;39485;45.702;11.364;2022-07-29T08:22:08;1.75;;;1.50;;
53598;SDS011;39485;45.702;11.364;2022-07-29T08:24:33;2.80;;;1.60;;
53598;SDS011;39485;45.702;11.364;2022-07-29T08:27:08;1.55;;;1.45;;
53598;SDS011;39485;45.702;11.364;2022-07-29T08:29:38;3.35;;;1.50;;
53598;SDS011;39485;45.702;11.364;2022-07-29T08:32:04;1.92;;;1.60;;
53598;SDS011;39485;45.702;11.364;2022-07-29T08:34:30;6.25;;;1.92;;
53598;SDS011;39485;45.702;11.364;2022-07-29T08:36:57;3.10;;;1.98;;
53598;SDS011;39485;45.702;11.364;2022-07-29T08:39:23;4.10;;;1.77;;
53598;SDS011;39485;45.702;11.364;2022-07-29T08:41:50;2.13;;;1.77;;
53598;SDS011;39485;45.702;11.364;2022-07-29T08:44:19;2.35;;;1.52;;
53598;SDS011;39485;45.702;11.364;2022-07-29T08:46:46;4.93;;;1.67;;
53598;SDS011;39485;45.702;11.364;2022-07-29T08:49:12;3.85;;;1.60;;
53598;SDS011;39485;45.702;11.364;2022-07-29T08:51:39;2.75;;;1.50;;
53598;SDS011;39485;45.702;11.364;2022-07-29T08:54:06;3.15;;;1.77;;
53598;SDS011;39485;45.702;11.364;2022-07-29T08:56:34;1.55;;;1.45;;
53598;SDS011;39485;45.702;11.364;2022-07-29T08:59:02;3.28;;;1.85;;
53598;SDS011;39485;45.702;11.364;2022-07-29T09:01:30;2.78;;;1.95;;
53598;SDS011;39485;45.702;11.364;2022-07-29T09:03:59;3.08;;;1.58;;
53598;SDS011;39485;45.702;11.364;2022-07-29T09:06:29;3.08;;;1.70;;
53598;SDS011;39485;45.702;11.364;2022-07-29T09:08:58;2.30;;;1.83;;
53598;SDS011;39485;45.702;11.364;2022-07-29T09:11:25;4.68;;;1.73;;
53598;SDS011;39485;45.702;11.364;2022-07-29T09:13:51;2.33;;;2.10;;
53598;SDS011;39485;45.702;11.364;2022-07-29T09:16:17;6.00;;;2.03;;
53598;SDS011;39485;45.702;11.364;2022-07-29T09:18:44;2.75;;;1.45;;
53598;SDS011;39485;45.702;11.364;2022-07-29T09:21:12;2.47;;;1.73;;
53598;SDS011;39485;45.702;11.364;2022-07-29T09:24:05;2.00;;;1.80;;
53598;SDS011;39485;45.702;11.364;2022-07-29T09:26:42;5.55;;;1.70;;
53598;SDS011;39485;45.702;11.364;2022-07-29T09:31:40;2.08;;;1.85;;
53598;SDS011;39485;45.702;11.364;2022-07-29T09:34:07;1.80;;;1.70;;
53598;SDS011;39485;45.702;11.364;2022-07-29T09:39:06;4.40;;;1.85;;
53598;SDS011;39485;45.702;11.364;2022-07-29T09:41:48;5.65;;;2.30;;
53598;SDS011;39485;45.702;11.364;2022-07-29T09:44:17;5.47;;;2.13;;
53598;SDS011;39485;45.702;11.364;2022-07-29T09:46:57;3.63;;;2.00;;
53598;SDS011;39485;45.702;11.364;2022-07-29T09:49:27;4.40;;;2.00;;
53598;SDS011;39485;45.702;11.364;2022-07-29T09:54:27;4.22;;;1.88;;
53598;SDS011;39485;45.702;11.364;2022-07-29T09:56:54;1.95;;;1.77;;
53598;SDS011;39485;45.702;11.364;2022-07-29T09:59:20;4.20;;;1.73;;
53598;SDS011;39485;45.702;11.364;2022-07-29T10:01:51;2.50;;;1.95;;
53598;SDS011;39485;45.702;11.364;2022-07-29T10:04:17;2.17;;;1.98;;
53598;SDS011;39485;45.702;11.364;2022-07-29T10:07:00;1.77;;;1.67;;
53598;SDS011;39485;45.702;11.364;2022-07-29T10:09:27;2.35;;;2.10;;
53598;SDS011;39485;45.702;11.364;2022-07-29T10:14:36;3.10;;;2.33;;
53598;SDS011;39485;45.702;11.364;2022-07-29T10:17:04;3.97;;;2.38;;
53598;SDS011;39485;45.702;11.364;2022-07-29T10:19:31;2.42;;;2.15;;
53598;SDS011;39485;45.702;11.364;2022-07-29T10:21:58;3.53;;;2.63;;
53598;SDS011;39485;45.702;11.364;2022-07-29T10:24:28;3.45;;;2.10;;
53598;SDS011;39485;45.702;11.364;2022-07-29T10:26:55;3.95;;;2.25;;
53598;SDS011;39485;45.702;11.364;2022-07-29T10:29:22;3.03;;;2.33;;
53598;SDS011;39485;45.702;11.364;2022-07-29T10:37:08;3.25;;;2.40;;
53598;SDS011;39485;45.702;11.364;2022-07-29T10:39:50;4.72;;;2.60;;
53598;SDS011;39485;45.702;11.364;2022-07-29T10:42:56;5.32;;;2.85;;
53598;SDS011;39485;45.702;11.364;2022-07-29T10:45:32;8.23;;;2.80;;
53598;SDS011;39485;45.702;11.364;2022-07-29T10:48:04;3.70;;;2.55;;
53598;SDS011;39485;45.702;11.364;2022-07-29T10:53:20;3.10;;;2.53;;
53598;SDS011;39485;45.702;11.364;2022-07-29T10:55:47;2.88;;;2.50;;
53598;SDS011;39485;45.702;11.364;2022-07-29T10:58:16;5.82;;;2.35;;
53598;SDS011;39485;45.702;11.364;2022-07-29T11:00:46;4.68;;;2.97;;
53598;SDS011;39485;45.702;11.364;2022-07-29T11:06:09;4.15;;;2.85;;
53598;SDS011;39485;45.702;11.364;2022-07-29T11:08:35;4.53;;;2.67;;
53598;SDS011;39485;45.702;11.364;2022-07-29T11:13:51;5.90;;;2.85;;
53598;SDS011;39485;45.702;11.364;2022-07-29T11:16:20;4.00;;;2.65;;
53598;SDS011;39485;45.702;11.364;2022-07-29T11:21:39;3.92;;;3.30;;
53598;SDS011;39485;45.702;11.364;2022-07-29T11:24:15;2.70;;;2.50;;
53598;SDS011;39485;45.702;11.364;2022-07-29T11:27:11;8.13;;;2.90;;
53598;SDS011;39485;45.702;11.364;2022-07-29T11:32:15;7.03;;;2.80;;
53598;SDS011;39485;45.702;11.364;2022-07-29T11:34:44;4.22;;;2.88;;
53598;SDS011;39485;45.702;11.364;2022-07-29T11:39:44;7.82;;;3.03;;
53598;SDS011;39485;45.702;11.364;2022-07-29T11:44:59;4.57;;;3.03;;
53598;SDS011;39485;45.702;11.364;2022-07-29T11:50:14;5.78;;;2.72;;
53598;SDS011;39485;45.702;11.364;2022-07-29T11:52:43;4.03;;;2.95;;
53598;SDS011;39485;45.702;11.364;2022-07-29T11:55:14;4.47;;;3.17;;
53598;SDS011;39485;45.702;11.364;2022-07-29T12:02:58;6.30;;;2.80;;
53598;SDS011;39485;45.702;11.364;2022-07-29T12:05:58;4.97;;;3.70;;
53598;SDS011;39485;45.702;11.364;2022-07-29T12:08:21;5.78;;;3.30;;
53598;SDS011;39485;45.702;11.364;2022-07-29T12:10:48;6.50;;;3.53;;
53598;SDS011;39485;45.702;11.364;2022-07-29T12:13:15;5.50;;;3.80;;
53598;SDS011;39485;45.702;11.364;2022-07-29T12:15:42;5.75;;;3.38;;
53598;SDS011;39485;45.702;11.364;2022-07-29T12:18:16;5.40;;;2.97;;
53598;SDS011;39485;45.702;11.364;2022-07-29T12:20:45;5.00;;;3.30;;
53598;SDS011;39485;45.702;11.364;2022-07-29T12:23:11;5.43;;;3.60;;
53598;SDS011;39485;45.702;11.364;2022-07-29T12:25:38;8.30;;;3.67;;
53598;SDS011;39485;45.702;11.364;2022-07-29T12:28:06;9.23;;;3.40;;
53598;SDS011;39485;45.702;11.364;2022-07-29T12:30:47;6.10;;;3.17;;
53598;SDS011;39485;45.702;11.364;2022-07-29T12:35:45;5.93;;;3.00;;
53598;SDS011;39485;45.702;11.364;2022-07-29T12:38:15;7.15;;;3.33;;
53598;SDS011;39485;45.702;11.364;2022-07-29T12:40:42;6.57;;;3.50;;
53598;SDS011;39485;45.702;11.364;2022-07-29T12:43:15;4.40;;;3.35;;
53598;SDS011;39485;45.702;11.364;2022-07-29T12:45:46;8.82;;;3.40;;
53598;SDS011;39485;45.702;11.364;2022-07-29T12:48:14;3.75;;;3.45;;
53598;SDS011;39485;45.702;11.364;2022-07-29T12:50:57;4.20;;;3.13;;
53598;SDS011;39485;45.702;11.364;2022-07-29T12:53:24;5.05;;;3.78;;
53598;SDS011;39485;45.702;11.364;2022-07-29T12:55:51;4.90;;;3.22;;
53598;SDS011;39485;45.702;11.364;2022-07-29T13:01:14;6.25;;;3.72;;
53598;SDS011;39485;45.702;11.364;2022-07-29T13:09:17;7.88;;;3.25;;
53598;SDS011;39485;45.702;11.364;2022-07-29T13:11:46;6.45;;;4.03;;
53598;SDS011;39485;45.702;11.364;2022-07-29T13:16:59;11.20;;;4.25;;
53598;SDS011;39485;45.702;11.364;2022-07-29T13:19:34;8.60;;;4.13;;
53598;SDS011;39485;45.702;11.364;2022-07-29T13:22:01;6.00;;;4.05;;
53598;SDS011;39485;45.702;11.364;2022-07-29T13:24:27;6.10;;;4.13;;
53598;SDS011;39485;45.702;11.364;2022-07-29T13:26:53;6.03;;;4.55;;
53598;SDS011;39485;45.702;11.364;2022-07-29T13:29:18;4.97;;;3.53;;
53598;SDS011;39485;45.702;11.364;2022-07-29T13:31:44;8.45;;;4.03;;
53598;SDS011;39485;45.702;11.364;2022-07-29T13:34:10;4.82;;;4.43;;
53598;SDS011;39485;45.702;11.364;2022-07-29T13:36:35;6.50;;;4.40;;
53598;SDS011;39485;45.702;11.364;2022-07-29T13:39:01;9.10;;;4.65;;
53598;SDS011;39485;45.702;11.364;2022-07-29T13:41:28;5.00;;;3.92;;
53598;SDS011;39485;45.702;11.364;2022-07-29T13:43:54;4.28;;;3.67;;
53598;SDS011;39485;45.702;11.364;2022-07-29T13:46:19;5.93;;;4.25;;
53598;SDS011;39485;45.702;11.364;2022-07-29T13:48:45;5.32;;;4.13;;
53598;SDS011;39485;45.702;11.364;2022-07-29T13:51:11;10.45;;;4.35;;
53598;SDS011;39485;45.702;11.364;2022-07-29T13:53:37;6.18;;;4.40;;
53598;SDS011;39485;45.702;11.364;2022-07-29T13:56:02;8.88;;;4.10;;
53598;SDS011;39485;45.702;11.364;2022-07-29T13:58:31;8.20;;;4.40;;
53598;SDS011;39485;45.702;11.364;2022-07-29T14:00:57;12.18;;;4.63;;
53598;SDS011;39485;45.702;11.364;2022-07-29T14:03:23;6.20;;;4.10;;
53598;SDS011;39485;45.702;11.364;2022-07-29T14:05:49;12.00;;;4.70;;
53598;SDS011;39485;45.702;11.364;2022-07-29T14:08:15;7.93;;;4.70;;
53598;SDS011;39485;45.702;11.364;2022-07-29T14:10:41;5.53;;;4.22;;
53598;SDS011;39485;45.702;11.364;2022-07-29T14:13:07;8.90;;;4.93;;
53598;SDS011;39485;45.702;11.364;2022-07-29T14:15:32;9.73;;;5.20;;
53598;SDS011;39485;45.702;11.364;2022-07-29T14:17:59;10.77;;;5.15;;
53598;SDS011;39485;45.702;11.364;2022-07-29T14:20:25;10.57;;;5.35;;
53598;SDS011;39485;45.702;11.364;2022-07-29T14:22:53;12.45;;;5.15;;
53598;SDS011;39485;45.702;11.364;2022-07-29T14:25:19;8.90;;;4.50;;
53598;SDS011;39485;45.702;11.364;2022-07-29T14:27:44;8.20;;;5.47;;
53598;SDS011;39485;45.702;11.364;2022-07-29T14:30:10;6.32;;;4.75;;
53598;SDS011;39485;45.702;11.364;2022-07-29T14:32:36;10.05;;;4.72;;
53598;SDS011;39485;45.702;11.364;2022-07-29T14:35:02;6.00;;;4.00;;
53598;SDS011;39485;45.702;11.364;2022-07-29T14:37:28;6.32;;;4.43;;
53598;SDS011;39485;45.702;11.364;2022-07-29T14:39:54;7.97;;;4.82;;
53598;SDS011;39485;45.702;11.364;2022-07-29T14:42:24;6.93;;;4.55;;
53598;SDS011;39485;45.702;11.364;2022-07-29T14:44:50;7.88;;;4.60;;
53598;SDS011;39485;45.702;11.364;2022-07-29T14:47:15;5.63;;;4.15;;
53598;SDS011;39485;45.702;11.364;2022-07-29T14:49:41;10.32;;;4.90;;
53598;SDS011;39485;45.702;11.364;2022-07-29T14:52:07;8.73;;;4.40;;
53598;SDS011;39485;45.702;11.364;2022-07-29T14:54:32;8.27;;;4.47;;
53598;SDS011;39485;45.702;11.364;2022-07-29T14:56:58;11.05;;;4.55;;
53598;SDS011;39485;45.702;11.364;2022-07-29T14:59:24;8.80;;;4.88;;
53598;SDS011;39485;45.702;11.364;2022-07-29T15:01:51;8.13;;;4.85;;
53598;SDS011;39485;45.702;11.364;2022-07-29T15:04:16;6.40;;;4.20;;
53598;SDS011;39485;45.702;11.364;2022-07-29T15:06:42;7.32;;;4.60;;
53598;SDS011;39485;45.702;11.364;2022-07-29T15:09:08;7.57;;;5.05;;
53598;SDS011;39485;45.702;11.364;2022-07-29T15:11:33;7.85;;;5.15;;
53598;SDS011;39485;45.702;11.364;2022-07-29T15:13:59;6.63;;;4.53;;
53598;SDS011;39485;45.702;11.364;2022-07-29T15:16:24;6.07;;;4.63;;
53598;SDS011;39485;45.702;11.364;2022-07-29T15:18:50;7.28;;;4.18;;
53598;SDS011;39485;45.702;11.364;2022-07-29T15:21:16;9.98;;;4.68;;
53598;SDS011;39485;45.702;11.364;2022-07-29T15:23:41;7.32;;;5.00;;
53598;SDS011;39485;45.702;11.364;2022-07-29T15:26:07;7.35;;;4.65;;
53598;SDS011;39485;45.702;11.364;2022-07-29T15:28:33;5.20;;;4.63;;
53598;SDS011;39485;45.702;11.364;2022-07-29T15:30:58;4.93;;;4.25;;
53598;SDS011;39485;45.702;11.364;2022-07-29T15:33:24;8.77;;;4.63;;
53598;SDS011;39485;45.702;11.364;2022-07-29T15:35:50;5.55;;;3.90;;
53598;SDS011;39485;45.702;11.364;2022-07-29T15:38:16;6.63;;;4.40;;
53598;SDS011;39485;45.702;11.364;2022-07-29T15:40:42;5.72;;;4.65;;
53598;SDS011;39485;45.702;11.364;2022-07-29T15:43:09;6.28;;;4.30;;
53598;SDS011;39485;45.702;11.364;2022-07-29T15:45:38;6.57;;;4.13;;